sensor_id;sensor_type;location;lat;lon;timestamp;temperature;humidity
66934;DHT22;53846;51.984;5.890;2022-11-30T00:01:55;11.70;78.00
66934;DHT22;53846;51.984;5.890;2022-11-30T00:04:24;11.90;78.00
66934;DHT22;53846;51.984;5.890;2022-11-30T00:06:53;11.70;77.60
66934;DHT22;53846;51.984;5.890;2022-11-30T00:09:23;11.80;77.60
66934;DHT22;53846;51.984;5.890;2022-11-30T00:11:54;11.70;77.60
66934;DHT22;53846;51.984;5.890;2022-11-30T00:14:23;11.70;77.50
66934;DHT22;53846;51.984;5.890;2022-11-30T00:16:53;11.70;77.50
66934;DHT22;53846;51.984;5.890;2022-11-30T00:19:22;11.70;77.60
66934;DHT22;53846;51.984;5.890;2022-11-30T00:21:51;11.40;77.40
66934;DHT22;53846;51.984;5.890;2022-11-30T00:24:20;11.70;77.60
66934;DHT22;53846;51.984;5.890;2022-11-30T00:26:49;11.90;77.70
66934;DHT22;53846;51.984;5.890;2022-11-30T00:29:21;11.70;77.50
66934;DHT22;53846;51.984;5.890;2022-11-30T00:31:50;11.70;77.60
66934;DHT22;53846;51.984;5.890;2022-11-30T00:34:19;11.60;77.60
66934;DHT22;53846;51.984;5.890;2022-11-30T00:36:48;11.60;77.60
66934;DHT22;53846;51.984;5.890;2022-11-30T00:39:17;11.60;77.60
66934;DHT22;53846;51.984;5.890;2022-11-30T00:41:46;11.40;77.40
66934;DHT22;53846;51.984;5.890;2022-11-30T00:44:16;11.40;77.50
66934;DHT22;53846;51.984;5.890;2022-11-30T00:46:47;11.40;77.40
66934;DHT22;53846;51.984;5.890;2022-11-30T00:49:16;11.40;77.40
66934;DHT22;53846;51.984;5.890;2022-11-30T00:51:48;11.40;77.40
66934;DHT22;53846;51.984;5.890;2022-11-30T00:54:19;11.60;77.50
66934;DHT22;53846;51.984;5.890;2022-11-30T00:56:48;11.60;77.40
66934;DHT22;53846;51.984;5.890;2022-11-30T00:59:17;11.40;77.30
66934;DHT22;53846;51.984;5.890;2022-11-30T01:01:49;11.50;77.30
66934;DHT22;53846;51.984;5.890;2022-11-30T01:04:18;11.60;77.40
66934;DHT22;53846;51.984;5.890;2022-11-30T01:06:48;11.90;77.50
66934;DHT22;53846;51.984;5.890;2022-11-30T01:09:17;11.60;77.30
66934;DHT22;53846;51.984;5.890;2022-11-30T01:11:46;11.40;78.90
66934;DHT22;53846;51.984;5.890;2022-11-30T01:14:15;11.50;78.50
66934;DHT22;53846;51.984;5.890;2022-11-30T01:16:44;11.70;78.00
66934;DHT22;53846;51.984;5.890;2022-11-30T01:19:16;11.60;77.50
66934;DHT22;53846;51.984;5.890;2022-11-30T01:21:45;11.50;77.20
66934;DHT22;53846;51.984;5.890;2022-11-30T01:24:14;11.70;77.10
66934;DHT22;53846;51.984;5.890;2022-11-30T01:26:44;11.40;77.90
66934;DHT22;53846;51.984;5.890;2022-11-30T01:29:13;11.80;78.00
66934;DHT22;53846;51.984;5.890;2022-11-30T01:31:42;11.60;77.40
66934;DHT22;53846;51.984;5.890;2022-11-30T01:34:11;11.80;77.30
66934;DHT22;53846;51.984;5.890;2022-11-30T01:36:43;11.90;77.20
66934;DHT22;53846;51.984;5.890;2022-11-30T01:39:13;11.60;77.00
66934;DHT22;53846;51.984;5.890;2022-11-30T01:41:42;11.60;76.90
66934;DHT22;53846;51.984;5.890;2022-11-30T01:47:25;11.60;77.00
66934;DHT22;53846;51.984;5.890;2022-11-30T01:50:00;11.40;76.60
66934;DHT22;53846;51.984;5.890;2022-11-30T01:52:35;11.60;76.70
66934;DHT22;53846;51.984;5.890;2022-11-30T01:55:13;11.70;76.90
66934;DHT22;53846;51.984;5.890;2022-11-30T01:57:46;11.40;76.80
66934;DHT22;53846;51.984;5.890;2022-11-30T02:00:18;11.70;77.50
66934;DHT22;53846;51.984;5.890;2022-11-30T02:02:53;11.50;76.80
66934;DHT22;53846;51.984;5.890;2022-11-30T02:05:24;11.50;76.90
66934;DHT22;53846;51.984;5.890;2022-11-30T02:07:56;11.60;77.00
66934;DHT22;53846;51.984;5.890;2022-11-30T02:10:28;11.60;77.10
66934;DHT22;53846;51.984;5.890;2022-11-30T02:13:31;11.40;77.00
66934;DHT22;53846;51.984;5.890;2022-11-30T02:16:07;11.40;77.20
66934;DHT22;53846;51.984;5.890;2022-11-30T02:18:45;11.40;77.00
66934;DHT22;53846;51.984;5.890;2022-11-30T02:21:17;11.60;77.20
66934;DHT22;53846;51.984;5.890;2022-11-30T02:27:14;11.40;77.20
66934;DHT22;53846;51.984;5.890;2022-11-30T02:29:52;11.40;77.10
66934;DHT22;53846;51.984;5.890;2022-11-30T02:32:26;11.40;77.10
66934;DHT22;53846;51.984;5.890;2022-11-30T02:34:58;11.40;77.20
66934;DHT22;53846;51.984;5.890;2022-11-30T02:37:28;11.30;77.20
66934;DHT22;53846;51.984;5.890;2022-11-30T02:39:57;11.10;77.10
66934;DHT22;53846;51.984;5.890;2022-11-30T02:42:27;11.40;77.30
66934;DHT22;53846;51.984;5.890;2022-11-30T02:44:58;10.90;79.00
66934;DHT22;53846;51.984;5.890;2022-11-30T02:47:32;11.20;78.70
66934;DHT22;53846;51.984;5.890;2022-11-30T02:50:09;11.30;78.10
66934;DHT22;53846;51.984;5.890;2022-11-30T02:52:39;11.30;77.70
66934;DHT22;53846;51.984;5.890;2022-11-30T02:55:10;11.40;77.50
66934;DHT22;53846;51.984;5.890;2022-11-30T02:57:42;11.20;77.20
66934;DHT22;53846;51.984;5.890;2022-11-30T03:00:15;11.10;77.00
66934;DHT22;53846;51.984;5.890;2022-11-30T03:02:44;11.30;77.20
66934;DHT22;53846;51.984;5.890;2022-11-30T03:05:14;11.40;77.10
66934;DHT22;53846;51.984;5.890;2022-11-30T03:07:43;11.40;77.20
66934;DHT22;53846;51.984;5.890;2022-11-30T03:10:12;11.40;77.30
66934;DHT22;53846;51.984;5.890;2022-11-30T03:12:41;11.30;77.30
66934;DHT22;53846;51.984;5.890;2022-11-30T03:15:10;11.10;77.20
66934;DHT22;53846;51.984;5.890;2022-11-30T03:17:42;11.50;77.50
66934;DHT22;53846;51.984;5.890;2022-11-30T03:20:11;11.20;77.30
66934;DHT22;53846;51.984;5.890;2022-11-30T03:22:40;11.20;77.20
66934;DHT22;53846;51.984;5.890;2022-11-30T03:25:09;11.20;77.20
66934;DHT22;53846;51.984;5.890;2022-11-30T03:27:39;11.00;77.20
66934;DHT22;53846;51.984;5.890;2022-11-30T03:30:09;11.30;77.40
66934;DHT22;53846;51.984;5.890;2022-11-30T03:32:38;11.40;77.40
66934;DHT22;53846;51.984;5.890;2022-11-30T03:35:10;11.20;77.30
66934;DHT22;53846;51.984;5.890;2022-11-30T03:37:39;11.10;77.30
66934;DHT22;53846;51.984;5.890;2022-11-30T03:40:09;11.40;77.50
66934;DHT22;53846;51.984;5.890;2022-11-30T03:42:39;11.20;77.30
66934;DHT22;53846;51.984;5.890;2022-11-30T03:45:08;11.30;77.30
66934;DHT22;53846;51.984;5.890;2022-11-30T03:47:38;11.20;77.20
66934;DHT22;53846;51.984;5.890;2022-11-30T03:50:12;11.00;77.00
66934;DHT22;53846;51.984;5.890;2022-11-30T03:52:41;10.90;76.90
66934;DHT22;53846;51.984;5.890;2022-11-30T03:55:10;10.90;76.80
66934;DHT22;53846;51.984;5.890;2022-11-30T03:57:40;10.80;76.70
66934;DHT22;53846;51.984;5.890;2022-11-30T04:00:10;11.10;76.80
66934;DHT22;53846;51.984;5.890;2022-11-30T04:02:39;11.20;76.80
66934;DHT22;53846;51.984;5.890;2022-11-30T04:05:18;10.80;76.50
66934;DHT22;53846;51.984;5.890;2022-11-30T04:07:47;10.90;76.60
66934;DHT22;53846;51.984;5.890;2022-11-30T04:10:16;10.80;76.50
66934;DHT22;53846;51.984;5.890;2022-11-30T04:12:45;10.70;76.40
66934;DHT22;53846;51.984;5.890;2022-11-30T04:15:15;10.70;76.30
66934;DHT22;53846;51.984;5.890;2022-11-30T04:17:44;10.60;76.30
66934;DHT22;53846;51.984;5.890;2022-11-30T04:20:18;10.60;76.30
66934;DHT22;53846;51.984;5.890;2022-11-30T04:22:48;10.50;76.40
66934;DHT22;53846;51.984;5.890;2022-11-30T04:25:17;10.40;76.40
66934;DHT22;53846;51.984;5.890;2022-11-30T04:27:46;10.40;76.30
66934;DHT22;53846;51.984;5.890;2022-11-30T04:30:16;10.30;76.30
66934;DHT22;53846;51.984;5.890;2022-11-30T04:32:45;10.40;76.40
66934;DHT22;53846;51.984;5.890;2022-11-30T04:35:17;10.00;76.30
66934;DHT22;53846;51.984;5.890;2022-11-30T04:37:48;10.20;76.40
66934;DHT22;53846;51.984;5.890;2022-11-30T04:40:17;10.20;76.40
66934;DHT22;53846;51.984;5.890;2022-11-30T04:42:46;10.10;76.40
66934;DHT22;53846;51.984;5.890;2022-11-30T04:45:18;10.10;76.40
66934;DHT22;53846;51.984;5.890;2022-11-30T04:47:47;9.90;76.30
66934;DHT22;53846;51.984;5.890;2022-11-30T04:50:19;10.00;76.30
66934;DHT22;53846;51.984;5.890;2022-11-30T04:52:48;9.90;76.30
66934;DHT22;53846;51.984;5.890;2022-11-30T04:55:22;10.00;76.40
66934;DHT22;53846;51.984;5.890;2022-11-30T04:57:51;10.10;76.40
66934;DHT22;53846;51.984;5.890;2022-11-30T05:00:21;10.10;77.00
66934;DHT22;53846;51.984;5.890;2022-11-30T05:02:50;9.60;76.10
66934;DHT22;53846;51.984;5.890;2022-11-30T05:05:22;9.50;76.10
66934;DHT22;53846;51.984;5.890;2022-11-30T05:07:55;9.70;76.10
66934;DHT22;53846;51.984;5.890;2022-11-30T05:10:25;9.50;76.00
66934;DHT22;53846;51.984;5.890;2022-11-30T05:12:56;9.60;76.00
66934;DHT22;53846;51.984;5.890;2022-11-30T05:15:25;9.80;76.20
66934;DHT22;53846;51.984;5.890;2022-11-30T05:17:57;9.50;76.00
66934;DHT22;53846;51.984;5.890;2022-11-30T05:20:29;9.70;76.10
66934;DHT22;53846;51.984;5.890;2022-11-30T05:22:58;9.50;76.10
66934;DHT22;53846;51.984;5.890;2022-11-30T05:25:27;9.40;76.10
66934;DHT22;53846;51.984;5.890;2022-11-30T05:27:59;9.40;76.10
66934;DHT22;53846;51.984;5.890;2022-11-30T05:30:28;9.30;75.90
66934;DHT22;53846;51.984;5.890;2022-11-30T05:32:57;9.40;76.10
66934;DHT22;53846;51.984;5.890;2022-11-30T05:35:29;9.20;76.00
66934;DHT22;53846;51.984;5.890;2022-11-30T05:37:58;9.20;76.00
66934;DHT22;53846;51.984;5.890;2022-11-30T05:40:27;9.20;76.10
66934;DHT22;53846;51.984;5.890;2022-11-30T05:42:58;9.20;76.00
66934;DHT22;53846;51.984;5.890;2022-11-30T05:45:28;9.20;76.10
66934;DHT22;53846;51.984;5.890;2022-11-30T05:47:58;9.10;76.20
66934;DHT22;53846;51.984;5.890;2022-11-30T05:50:29;9.20;76.30
66934;DHT22;53846;51.984;5.890;2022-11-30T05:52:59;9.20;76.40
66934;DHT22;53846;51.984;5.890;2022-11-30T05:55:28;9.00;76.40
66934;DHT22;53846;51.984;5.890;2022-11-30T05:57:57;8.70;76.20
66934;DHT22;53846;51.984;5.890;2022-11-30T06:00:27;9.00;76.50
66934;DHT22;53846;51.984;5.890;2022-11-30T06:02:56;8.70;76.30
66934;DHT22;53846;51.984;5.890;2022-11-30T06:05:28;9.10;76.60
66934;DHT22;53846;51.984;5.890;2022-11-30T06:07:58;8.70;78.90
66934;DHT22;53846;51.984;5.890;2022-11-30T06:10:27;8.80;78.20
66934;DHT22;53846;51.984;5.890;2022-11-30T06:12:56;9.00;77.60
66934;DHT22;53846;51.984;5.890;2022-11-30T06:15:25;8.90;77.10
66934;DHT22;53846;51.984;5.890;2022-11-30T06:17:55;8.90;76.80
66934;DHT22;53846;51.984;5.890;2022-11-30T06:20:24;9.00;76.60
66934;DHT22;53846;51.984;5.890;2022-11-30T06:22:57;9.00;76.60
66934;DHT22;53846;51.984;5.890;2022-11-30T06:25:27;9.10;76.60
66934;DHT22;53846;51.984;5.890;2022-11-30T06:27:56;9.10;76.60
66934;DHT22;53846;51.984;5.890;2022-11-30T06:30:25;9.00;76.50
66934;DHT22;53846;51.984;5.890;2022-11-30T06:32:55;8.80;76.40
66934;DHT22;53846;51.984;5.890;2022-11-30T06:35:24;9.00;76.60
66934;DHT22;53846;51.984;5.890;2022-11-30T06:37:56;9.00;76.70
66934;DHT22;53846;51.984;5.890;2022-11-30T06:40:28;9.00;76.80
66934;DHT22;53846;51.984;5.890;2022-11-30T06:42:57;8.80;76.90
66934;DHT22;53846;51.984;5.890;2022-11-30T06:45:26;8.80;77.00
66934;DHT22;53846;51.984;5.890;2022-11-30T06:48:00;8.80;77.20
66934;DHT22;53846;51.984;5.890;2022-11-30T06:50:34;8.90;77.30
66934;DHT22;53846;51.984;5.890;2022-11-30T06:53:08;8.50;77.10
66934;DHT22;53846;51.984;5.890;2022-11-30T06:55:37;8.70;77.30
66934;DHT22;53846;51.984;5.890;2022-11-30T06:58:10;8.80;77.30
66934;DHT22;53846;51.984;5.890;2022-11-30T07:00:41;8.90;77.40
66934;DHT22;53846;51.984;5.890;2022-11-30T07:03:13;8.80;77.30
66934;DHT22;53846;51.984;5.890;2022-11-30T07:05:44;9.00;77.60
66934;DHT22;53846;51.984;5.890;2022-11-30T07:08:16;8.50;77.20
66934;DHT22;53846;51.984;5.890;2022-11-30T07:10:46;8.70;77.40
66934;DHT22;53846;51.984;5.890;2022-11-30T07:13:16;8.90;77.70
66934;DHT22;53846;51.984;5.890;2022-11-30T07:15:46;8.80;77.70
66934;DHT22;53846;51.984;5.890;2022-11-30T07:18:15;8.70;77.70
66934;DHT22;53846;51.984;5.890;2022-11-30T07:20:44;8.60;77.70
66934;DHT22;53846;51.984;5.890;2022-11-30T07:23:25;8.60;77.70
66934;DHT22;53846;51.984;5.890;2022-11-30T07:26:07;8.50;77.80
66934;DHT22;53846;51.984;5.890;2022-11-30T07:28:37;8.60;77.90
66934;DHT22;53846;51.984;5.890;2022-11-30T07:31:15;8.50;77.90
66934;DHT22;53846;51.984;5.890;2022-11-30T07:33:44;8.60;78.20
66934;DHT22;53846;51.984;5.890;2022-11-30T07:36:14;8.80;78.30
66934;DHT22;53846;51.984;5.890;2022-11-30T07:38:46;8.60;78.30
66934;DHT22;53846;51.984;5.890;2022-11-30T07:41:15;8.60;78.40
66934;DHT22;53846;51.984;5.890;2022-11-30T07:43:44;8.80;78.70
66934;DHT22;53846;51.984;5.890;2022-11-30T07:46:15;8.80;78.70
66934;DHT22;53846;51.984;5.890;2022-11-30T07:48:45;8.80;78.70
66934;DHT22;53846;51.984;5.890;2022-11-30T07:51:15;8.70;78.60
66934;DHT22;53846;51.984;5.890;2022-11-30T07:53:48;8.70;78.70
66934;DHT22;53846;51.984;5.890;2022-11-30T07:56:18;8.90;78.70
66934;DHT22;53846;51.984;5.890;2022-11-30T07:58:48;9.00;78.70
66934;DHT22;53846;51.984;5.890;2022-11-30T08:01:22;8.70;78.60
66934;DHT22;53846;51.984;5.890;2022-11-30T08:03:52;8.80;78.70
66934;DHT22;53846;51.984;5.890;2022-11-30T08:06:23;8.80;78.70
66934;DHT22;53846;51.984;5.890;2022-11-30T08:08:57;9.00;78.80
66934;DHT22;53846;51.984;5.890;2022-11-30T08:11:28;9.10;78.90
66934;DHT22;53846;51.984;5.890;2022-11-30T08:13:58;8.90;78.70
66934;DHT22;53846;51.984;5.890;2022-11-30T08:16:29;9.00;78.80
66934;DHT22;53846;51.984;5.890;2022-11-30T08:19:01;9.00;78.80
66934;DHT22;53846;51.984;5.890;2022-11-30T08:21:30;9.10;79.10
66934;DHT22;53846;51.984;5.890;2022-11-30T08:24:02;9.20;79.30
66934;DHT22;53846;51.984;5.890;2022-11-30T08:26:33;9.10;79.30
66934;DHT22;53846;51.984;5.890;2022-11-30T08:29:02;9.00;79.30
66934;DHT22;53846;51.984;5.890;2022-11-30T08:31:32;9.00;79.50
66934;DHT22;53846;51.984;5.890;2022-11-30T08:34:03;9.10;79.40
66934;DHT22;53846;51.984;5.890;2022-11-30T08:36:33;9.20;79.40
66934;DHT22;53846;51.984;5.890;2022-11-30T08:39:07;9.40;79.60
66934;DHT22;53846;51.984;5.890;2022-11-30T08:41:36;9.30;79.40
66934;DHT22;53846;51.984;5.890;2022-11-30T08:44:05;9.40;79.50
66934;DHT22;53846;51.984;5.890;2022-11-30T08:46:35;9.40;79.40
66934;DHT22;53846;51.984;5.890;2022-11-30T08:49:06;9.40;79.40
66934;DHT22;53846;51.984;5.890;2022-11-30T08:51:35;9.60;79.50
66934;DHT22;53846;51.984;5.890;2022-11-30T08:54:11;9.30;79.20
66934;DHT22;53846;51.984;5.890;2022-11-30T08:56:40;9.50;79.40
66934;DHT22;53846;51.984;5.890;2022-11-30T08:59:09;9.50;79.40
66934;DHT22;53846;51.984;5.890;2022-11-30T09:01:38;9.40;79.20
66934;DHT22;53846;51.984;5.890;2022-11-30T09:04:08;9.60;79.40
66934;DHT22;53846;51.984;5.890;2022-11-30T09:06:40;9.60;79.30
66934;DHT22;53846;51.984;5.890;2022-11-30T09:09:12;9.60;79.30
66934;DHT22;53846;51.984;5.890;2022-11-30T09:11:41;9.60;79.40
66934;DHT22;53846;51.984;5.890;2022-11-30T09:14:10;9.70;79.40
66934;DHT22;53846;51.984;5.890;2022-11-30T09:16:40;9.60;79.30
66934;DHT22;53846;51.984;5.890;2022-11-30T09:19:09;9.70;79.30
66934;DHT22;53846;51.984;5.890;2022-11-30T09:21:38;9.70;79.40
66934;DHT22;53846;51.984;5.890;2022-11-30T09:24:07;9.50;79.20
66934;DHT22;53846;51.984;5.890;2022-11-30T09:26:39;9.60;79.30
66934;DHT22;53846;51.984;5.890;2022-11-30T09:29:08;9.90;79.50
66934;DHT22;53846;51.984;5.890;2022-11-30T09:31:37;10.10;79.60
66934;DHT22;53846;51.984;5.890;2022-11-30T09:34:08;10.00;79.50
66934;DHT22;53846;51.984;5.890;2022-11-30T09:36:38;10.10;79.60
66934;DHT22;53846;51.984;5.890;2022-11-30T09:39:09;10.00;79.60
66934;DHT22;53846;51.984;5.890;2022-11-30T09:42:06;10.00;79.50
66934;DHT22;53846;51.984;5.890;2022-11-30T09:44:49;10.00;79.50
66934;DHT22;53846;51.984;5.890;2022-11-30T09:47:43;10.10;79.50
66934;DHT22;53846;51.984;5.890;2022-11-30T09:50:17;10.10;79.30
66934;DHT22;53846;51.984;5.890;2022-11-30T09:52:50;10.20;79.20
66934;DHT22;53846;51.984;5.890;2022-11-30T09:55:25;10.40;79.40
66934;DHT22;53846;51.984;5.890;2022-11-30T09:58:02;10.30;79.30
66934;DHT22;53846;51.984;5.890;2022-11-30T10:00:32;10.10;79.30
66934;DHT22;53846;51.984;5.890;2022-11-30T10:03:04;10.30;79.50
66934;DHT22;53846;51.984;5.890;2022-11-30T10:05:44;10.30;79.70
66934;DHT22;53846;51.984;5.890;2022-11-30T10:08:37;10.60;80.00
66934;DHT22;53846;51.984;5.890;2022-11-30T10:11:40;10.30;80.00
66934;DHT22;53846;51.984;5.890;2022-11-30T10:14:28;10.70;80.00
66934;DHT22;53846;51.984;5.890;2022-11-30T10:17:07;11.20;80.30
66934;DHT22;53846;51.984;5.890;2022-11-30T10:19:55;11.50;80.90
66934;DHT22;53846;51.984;5.890;2022-11-30T10:22:37;12.90;81.00
66934;DHT22;53846;51.984;5.890;2022-11-30T10:25:16;15.00;76.20
66934;DHT22;53846;51.984;5.890;2022-11-30T10:27:49;16.50;75.50
66934;DHT22;53846;51.984;5.890;2022-11-30T10:30:23;18.60;69.00
66934;DHT22;53846;51.984;5.890;2022-11-30T10:32:54;20.30;64.60
66934;DHT22;53846;51.984;5.890;2022-11-30T10:35:33;21.60;59.50
66934;DHT22;53846;51.984;5.890;2022-11-30T10:38:12;23.00;57.30
66934;DHT22;53846;51.984;5.890;2022-11-30T10:40:45;23.90;53.90
66934;DHT22;53846;51.984;5.890;2022-11-30T10:43:23;23.70;54.40
66934;DHT22;53846;51.984;5.890;2022-11-30T10:45:56;24.80;50.60
66934;DHT22;53846;51.984;5.890;2022-11-30T10:48:31;25.70;47.80
66934;DHT22;53846;51.984;5.890;2022-11-30T10:51:02;26.40;47.00
66934;DHT22;53846;51.984;5.890;2022-11-30T10:53:34;26.90;44.40
66934;DHT22;53846;51.984;5.890;2022-11-30T10:56:09;27.60;42.10
66934;DHT22;53846;51.984;5.890;2022-11-30T10:58:45;27.80;41.30
66934;DHT22;53846;51.984;5.890;2022-11-30T11:01:33;28.00;40.40
66934;DHT22;53846;51.984;5.890;2022-11-30T11:04:12;28.50;39.60
66934;DHT22;53846;51.984;5.890;2022-11-30T11:06:44;28.70;37.90
66934;DHT22;53846;51.984;5.890;2022-11-30T11:09:38;28.80;36.70
66934;DHT22;53846;51.984;5.890;2022-11-30T11:12:15;28.90;36.50
66934;DHT22;53846;51.984;5.890;2022-11-30T11:14:45;29.00;36.00
66934;DHT22;53846;51.984;5.890;2022-11-30T11:17:23;29.20;35.00
66934;DHT22;53846;51.984;5.890;2022-11-30T11:19:54;29.20;34.90
66934;DHT22;53846;51.984;5.890;2022-11-30T11:22:24;29.10;34.00
66934;DHT22;53846;51.984;5.890;2022-11-30T11:25:08;29.20;35.40
66934;DHT22;53846;51.984;5.890;2022-11-30T11:27:39;29.30;34.90
66934;DHT22;53846;51.984;5.890;2022-11-30T11:30:30;29.40;32.60
66934;DHT22;53846;51.984;5.890;2022-11-30T11:33:03;29.40;33.40
66934;DHT22;53846;51.984;5.890;2022-11-30T11:35:36;28.50;33.50
66934;DHT22;53846;51.984;5.890;2022-11-30T11:38:18;27.70;34.30
66934;DHT22;53846;51.984;5.890;2022-11-30T11:40:52;27.00;35.40
66934;DHT22;53846;51.984;5.890;2022-11-30T11:43:26;27.20;35.60
66934;DHT22;53846;51.984;5.890;2022-11-30T11:45:57;27.60;34.90
66934;DHT22;53846;51.984;5.890;2022-11-30T11:48:35;27.80;34.70
66934;DHT22;53846;51.984;5.890;2022-11-30T11:51:07;28.00;33.50
66934;DHT22;53846;51.984;5.890;2022-11-30T11:53:45;28.10;33.00
66934;DHT22;53846;51.984;5.890;2022-11-30T11:56:15;28.20;31.80
66934;DHT22;53846;51.984;5.890;2022-11-30T11:58:49;28.20;32.20
66934;DHT22;53846;51.984;5.890;2022-11-30T12:01:37;28.10;31.90
66934;DHT22;53846;51.984;5.890;2022-11-30T12:04:34;28.20;32.50
66934;DHT22;53846;51.984;5.890;2022-11-30T12:07:11;28.20;32.40
66934;DHT22;53846;51.984;5.890;2022-11-30T12:09:50;28.30;31.40
66934;DHT22;53846;51.984;5.890;2022-11-30T12:12:21;27.10;32.90
66934;DHT22;53846;51.984;5.890;2022-11-30T12:14:50;26.00;33.30
66934;DHT22;53846;51.984;5.890;2022-11-30T12:17:41;25.20;33.90
66934;DHT22;53846;51.984;5.890;2022-11-30T12:20:22;24.30;35.60
66934;DHT22;53846;51.984;5.890;2022-11-30T12:23:11;23.20;37.10
66934;DHT22;53846;51.984;5.890;2022-11-30T12:25:50;22.30;38.00
66934;DHT22;53846;51.984;5.890;2022-11-30T12:28:30;21.50;38.80
66934;DHT22;53846;51.984;5.890;2022-11-30T12:31:10;20.60;39.90
66934;DHT22;53846;51.984;5.890;2022-11-30T12:33:53;20.20;41.10
66934;DHT22;53846;51.984;5.890;2022-11-30T12:36:43;19.40;42.50
66934;DHT22;53846;51.984;5.890;2022-11-30T12:39:27;18.60;44.10
66934;DHT22;53846;51.984;5.890;2022-11-30T12:41:59;18.10;45.50
66934;DHT22;53846;51.984;5.890;2022-11-30T12:44:37;17.50;47.00
66934;DHT22;53846;51.984;5.890;2022-11-30T12:47:15;17.10;48.20
66934;DHT22;53846;51.984;5.890;2022-11-30T12:50:06;16.50;48.80
66934;DHT22;53846;51.984;5.890;2022-11-30T12:52:47;15.90;49.60
66934;DHT22;53846;51.984;5.890;2022-11-30T12:55:27;15.90;50.10
66934;DHT22;53846;51.984;5.890;2022-11-30T12:58:06;15.70;51.40
66934;DHT22;53846;51.984;5.890;2022-11-30T13:00:41;15.70;51.50
66934;DHT22;53846;51.984;5.890;2022-11-30T13:03:30;15.40;51.90
66934;DHT22;53846;51.984;5.890;2022-11-30T13:06:09;15.20;52.30
66934;DHT22;53846;51.984;5.890;2022-11-30T13:08:53;15.20;52.50
66934;DHT22;53846;51.984;5.890;2022-11-30T13:11:28;15.00;53.50
66934;DHT22;53846;51.984;5.890;2022-11-30T13:14:00;14.80;53.20
66934;DHT22;53846;51.984;5.890;2022-11-30T13:16:30;14.80;53.30
66934;DHT22;53846;51.984;5.890;2022-11-30T13:19:18;14.50;54.40
66934;DHT22;53846;51.984;5.890;2022-11-30T13:21:54;14.60;54.20
66934;DHT22;53846;51.984;5.890;2022-11-30T13:24:33;14.30;54.00
66934;DHT22;53846;51.984;5.890;2022-11-30T13:27:09;14.40;54.20
66934;DHT22;53846;51.984;5.890;2022-11-30T13:29:52;14.10;55.20
66934;DHT22;53846;51.984;5.890;2022-11-30T13:32:22;14.30;55.10
66934;DHT22;53846;51.984;5.890;2022-11-30T13:34:52;14.00;55.30
66934;DHT22;53846;51.984;5.890;2022-11-30T13:37:21;13.90;55.40
66934;DHT22;53846;51.984;5.890;2022-11-30T13:39:56;13.80;55.30
66934;DHT22;53846;51.984;5.890;2022-11-30T13:42:35;13.80;55.50
66934;DHT22;53846;51.984;5.890;2022-11-30T13:45:24;13.70;55.60
66934;DHT22;53846;51.984;5.890;2022-11-30T13:47:57;13.70;56.00
66934;DHT22;53846;51.984;5.890;2022-11-30T13:50:34;13.60;57.00
66934;DHT22;53846;51.984;5.890;2022-11-30T13:53:21;13.50;57.00
66934;DHT22;53846;51.984;5.890;2022-11-30T14:01:49;13.30;56.80
66934;DHT22;53846;51.984;5.890;2022-11-30T14:04:33;13.30;57.40
66934;DHT22;53846;51.984;5.890;2022-11-30T14:07:31;13.20;57.30
66934;DHT22;53846;51.984;5.890;2022-11-30T14:10:02;13.10;57.90
66934;DHT22;53846;51.984;5.890;2022-11-30T14:12:59;13.10;57.80
66934;DHT22;53846;51.984;5.890;2022-11-30T14:15:50;13.30;58.20
66934;DHT22;53846;51.984;5.890;2022-11-30T14:18:38;13.00;57.90
66934;DHT22;53846;51.984;5.890;2022-11-30T14:21:21;12.90;58.50
66934;DHT22;53846;51.984;5.890;2022-11-30T14:23:55;12.90;60.10
66934;DHT22;53846;51.984;5.890;2022-11-30T14:26:31;12.50;59.50
66934;DHT22;53846;51.984;5.890;2022-11-30T14:29:13;12.90;59.80
66934;DHT22;53846;51.984;5.890;2022-11-30T14:31:51;12.70;60.00
66934;DHT22;53846;51.984;5.890;2022-11-30T14:34:24;12.60;60.20
66934;DHT22;53846;51.984;5.890;2022-11-30T14:36:58;12.60;60.60
66934;DHT22;53846;51.984;5.890;2022-11-30T14:39:33;12.80;61.00
66934;DHT22;53846;51.984;5.890;2022-11-30T14:42:18;12.40;60.60
66934;DHT22;53846;51.984;5.890;2022-11-30T14:44:48;12.30;61.10
66934;DHT22;53846;51.984;5.890;2022-11-30T14:47:22;12.20;61.10
66934;DHT22;53846;51.984;5.890;2022-11-30T14:49:53;12.50;61.60
66934;DHT22;53846;51.984;5.890;2022-11-30T14:52:42;12.10;61.40
66934;DHT22;53846;51.984;5.890;2022-11-30T14:55:23;12.20;61.70
66934;DHT22;53846;51.984;5.890;2022-11-30T14:58:17;12.30;62.10
66934;DHT22;53846;51.984;5.890;2022-11-30T15:00:48;12.70;63.00
66934;DHT22;53846;51.984;5.890;2022-11-30T15:03:22;12.20;62.90
66934;DHT22;53846;51.984;5.890;2022-11-30T15:05:54;12.20;63.30
66934;DHT22;53846;51.984;5.890;2022-11-30T15:08:28;12.20;62.80
66934;DHT22;53846;51.984;5.890;2022-11-30T15:11:03;12.30;63.10
66934;DHT22;53846;51.984;5.890;2022-11-30T15:13:37;12.20;63.00
66934;DHT22;53846;51.984;5.890;2022-11-30T15:16:10;11.90;62.60
66934;DHT22;53846;51.984;5.890;2022-11-30T15:18:45;12.20;63.00
66934;DHT22;53846;51.984;5.890;2022-11-30T15:21:16;12.10;64.40
66934;DHT22;53846;51.984;5.890;2022-11-30T15:23:47;11.90;64.30
66934;DHT22;53846;51.984;5.890;2022-11-30T15:26:19;12.20;64.50
66934;DHT22;53846;51.984;5.890;2022-11-30T15:28:54;11.90;64.50
66934;DHT22;53846;51.984;5.890;2022-11-30T15:31:30;12.20;64.40
66934;DHT22;53846;51.984;5.890;2022-11-30T15:34:00;12.00;64.90
66934;DHT22;53846;51.984;5.890;2022-11-30T15:36:33;12.00;64.40
66934;DHT22;53846;51.984;5.890;2022-11-30T15:39:04;11.80;65.60
66934;DHT22;53846;51.984;5.890;2022-11-30T15:41:35;12.00;66.50
66934;DHT22;53846;51.984;5.890;2022-11-30T15:44:25;11.60;65.20
66934;DHT22;53846;51.984;5.890;2022-11-30T15:46:58;11.90;65.10
66934;DHT22;53846;51.984;5.890;2022-11-30T15:49:34;11.80;65.20
66934;DHT22;53846;51.984;5.890;2022-11-30T15:52:05;11.90;65.30
66934;DHT22;53846;51.984;5.890;2022-11-30T15:54:47;11.80;65.10
66934;DHT22;53846;51.984;5.890;2022-11-30T15:57:18;12.10;65.60
66934;DHT22;53846;51.984;5.890;2022-11-30T16:00:18;12.00;65.10
66934;DHT22;53846;51.984;5.890;2022-11-30T16:03:06;11.80;65.10
66934;DHT22;53846;51.984;5.890;2022-11-30T16:05:36;12.00;65.80
66934;DHT22;53846;51.984;5.890;2022-11-30T16:08:13;11.90;65.60
66934;DHT22;53846;51.984;5.890;2022-11-30T16:10:43;11.80;66.00
66934;DHT22;53846;51.984;5.890;2022-11-30T16:13:13;11.80;65.80
66934;DHT22;53846;51.984;5.890;2022-11-30T16:15:44;11.70;65.80
66934;DHT22;53846;51.984;5.890;2022-11-30T16:18:18;12.00;66.40
66934;DHT22;53846;51.984;5.890;2022-11-30T16:20:49;11.40;65.90
66934;DHT22;53846;51.984;5.890;2022-11-30T16:23:19;11.70;66.10
66934;DHT22;53846;51.984;5.890;2022-11-30T16:25:49;11.80;65.90
66934;DHT22;53846;51.984;5.890;2022-11-30T16:28:20;11.70;65.90